createdAt,value
2022-12-26T00:01:13.607Z,98437.86
2022-12-26T00:03:41.260Z,98435.39
2022-12-26T00:06:16.900Z,98438.55
2022-12-26T00:08:45.299Z,98448.09
2022-12-26T00:11:14.263Z,98453.95
2022-12-26T00:13:42.005Z,98461.95
2022-12-26T00:16:15.560Z,98450.70
2022-12-26T00:18:46.478Z,98450.14
2022-12-26T00:21:15.753Z,98455.45
2022-12-26T00:23:44.614Z,98460.20
2022-12-26T00:26:19.371Z,98462.61
2022-12-26T00:28:47.020Z,98462.00
2022-12-26T00:31:25.325Z,98459.05
2022-12-26T00:33:52.973Z,98462.76
2022-12-26T00:36:24.571Z,98466.20
2022-12-26T00:38:52.243Z,98469.68
2022-12-26T00:41:21.286Z,98464.02
2022-12-26T00:43:49.743Z,98465.09
2022-12-26T00:46:18.825Z,98470.94
2022-12-26T00:48:46.742Z,98484.05
2022-12-26T00:51:15.390Z,98473.57
2022-12-26T00:53:43.124Z,98477.31
2022-12-26T00:56:11.082Z,98479.15
2022-12-26T00:58:41.649Z,98473.48
2022-12-26T01:01:16.892Z,98473.75
2022-12-26T01:03:46.169Z,98467.06
2022-12-26T01:06:14.793Z,98467.60
2022-12-26T01:08:43.236Z,98452.61
2022-12-26T01:11:14.155Z,98453.99
2022-12-26T01:13:42.862Z,98448.41
2022-12-26T01:16:10.480Z,98447.92
2022-12-26T01:18:38.037Z,98440.73
2022-12-26T01:21:09.642Z,98433.81
2022-12-26T01:23:37.236Z,98444.02
2022-12-26T01:26:18.022Z,98427.69
2022-12-26T01:28:36.149Z,98425.82
2022-12-26T01:31:06.156Z,98422.91
2022-12-26T01:33:34.099Z,98422.95
2022-12-26T01:36:01.530Z,98428.03
2022-12-26T01:38:29.379Z,98429.88
2022-12-26T01:41:19.172Z,98415.37
2022-12-26T01:44:08.846Z,98419.12
2022-12-26T01:46:47.687Z,98416.95
2022-12-26T01:49:29.513Z,98414.23
2022-12-26T01:52:13.210Z,98411.28
2022-12-26T01:54:50.553Z,98406.44
2022-12-26T01:57:28.914Z,98409.34
2022-12-26T02:00:11.174Z,98407.16
2022-12-26T02:03:09.652Z,98408.72
2022-12-26T02:05:44.015Z,98398.25
2022-12-26T02:08:19.044Z,98406.00
2022-12-26T02:11:18.379Z,98397.17
2022-12-26T02:13:46.163Z,98386.16
2022-12-26T02:16:17.327Z,98390.41
2022-12-26T02:18:45.931Z,98394.42
2022-12-26T02:21:54.117Z,98394.42
2022-12-26T02:25:02.443Z,98392.84
2022-12-26T02:28:00.979Z,98384.56
2022-12-26T02:30:46.313Z,98392.86
2022-12-26T02:33:28.571Z,98400.65
2022-12-26T02:36:13.583Z,98394.46
2022-12-26T02:39:44.411Z,98399.81
2022-12-26T02:42:06.770Z,98404.89
2022-12-26T02:45:04.283Z,98408.64
2022-12-26T02:48:15.246Z,98410.74
2022-12-26T02:51:53.889Z,98402.44
2022-12-26T02:54:58.127Z,98392.02
2022-12-26T02:57:56.627Z,98374.96
2022-12-26T03:00:47.351Z,98363.80
2022-12-26T03:03:44.575Z,98373.47
2022-12-26T03:06:46.128Z,98384.14
2022-12-26T03:09:44.899Z,98390.56
2022-12-26T03:13:02.740Z,98395.64
2022-12-26T03:15:37.002Z,98396.95
2022-12-26T03:18:08.290Z,98393.69
2022-12-26T03:20:38.182Z,98402.48
2022-12-26T03:23:13.431Z,98399.23
2022-12-26T03:26:04.423Z,98391.42
2022-12-26T03:28:32.213Z,98393.48
2022-12-26T03:31:07.785Z,98399.83
2022-12-26T03:33:58.349Z,98395.49
2022-12-26T03:36:57.224Z,98398.12
2022-12-26T03:39:55.230Z,98397.49
2022-12-26T03:42:49.515Z,98391.25
2022-12-26T03:46:16.868Z,98393.56
2022-12-26T03:49:23.909Z,98402.32
2022-12-26T03:52:49.293Z,98402.75
2022-12-26T03:56:13.561Z,98411.31
2022-12-26T03:59:17.969Z,98396.88
2022-12-26T04:02:06.147Z,98386.73
2022-12-26T04:04:56.233Z,98370.46
2022-12-26T04:07:56.715Z,98369.39
2022-12-26T04:11:08.228Z,98367.27
2022-12-26T04:14:26.332Z,98365.39
2022-12-26T04:17:23.132Z,98378.97
2022-12-26T04:20:08.014Z,98384.79
2022-12-26T04:23:13.698Z,98381.80
2022-12-26T04:26:33.993Z,98390.09
2022-12-26T04:29:20.122Z,98399.23
2022-12-26T04:32:14.622Z,98409.98
2022-12-26T04:35:23.026Z,98415.69
2022-12-26T04:38:11.144Z,98406.11
2022-12-26T04:41:02.690Z,98404.26
2022-12-26T04:43:51.749Z,98405.68
2022-12-26T04:46:22.818Z,98415.84
2022-12-26T04:49:14.483Z,98418.25
2022-12-26T04:51:41.899Z,98427.61
2022-12-26T04:54:09.660Z,98424.39
2022-12-26T04:56:40.296Z,98424.09
2022-12-26T04:59:07.970Z,98426.77
2022-12-26T05:01:54.151Z,98427.61
2022-12-26T05:04:40.310Z,98415.13
2022-12-26T05:07:36.338Z,98406.89
2022-12-26T05:10:06.300Z,98413.09
2022-12-26T05:12:34.273Z,98405.39
2022-12-26T05:15:01.787Z,98403.07
2022-12-26T05:17:48.200Z,98402.05
2022-12-26T05:20:34.454Z,98407.48
2022-12-26T05:23:21.777Z,98401.56
2022-12-26T05:26:07.524Z,98403.96
2022-12-26T05:28:41.331Z,98417.06
2022-12-26T05:31:15.823Z,98417.34
2022-12-26T05:34:03.358Z,98413.38
2022-12-26T05:36:47.264Z,98419.84
2022-12-26T05:39:14.703Z,98420.67
2022-12-26T05:41:43.098Z,98416.17
2022-12-26T05:44:11.401Z,98403.59
2022-12-26T05:46:41.980Z,98415.14
2022-12-26T05:49:10.274Z,98407.12
2022-12-26T05:51:38.278Z,98404.17
2022-12-26T05:54:06.097Z,98400.42
2022-12-26T05:56:34.181Z,98399.89
2022-12-26T05:59:02.028Z,98401.50
2022-12-26T06:01:30.549Z,98399.59
2022-12-26T06:03:59.976Z,98416.98
2022-12-26T06:06:28.752Z,98406.58
2022-12-26T06:08:57.011Z,98407.37
2022-12-26T06:11:26.013Z,98402.83
2022-12-26T06:13:55.137Z,98398.28
2022-12-26T06:16:23.187Z,98399.66
2022-12-26T06:18:50.793Z,98387.31
2022-12-26T06:21:20.163Z,98395.91
2022-12-26T06:23:49.345Z,98391.37
2022-12-26T06:26:17.828Z,98395.91
2022-12-26T06:28:46.671Z,98388.42
2022-12-26T06:31:20.217Z,98388.42
2022-12-26T06:33:49.062Z,98390.06
2022-12-26T06:36:21.023Z,98391.94
2022-12-26T06:38:49.218Z,98397.33
2022-12-26T06:41:19.397Z,98390.95
2022-12-26T06:43:47.229Z,98383.48
2022-12-26T06:46:19.319Z,98384.36
2022-12-26T06:48:47.148Z,98372.91
2022-12-26T06:51:24.672Z,98370.86
2022-12-26T06:53:53.158Z,98367.95
2022-12-26T06:56:24.865Z,98367.47
2022-12-26T06:59:02.659Z,98363.48
2022-12-26T07:01:33.844Z,98358.95
2022-12-26T07:04:03.729Z,98363.55
2022-12-26T07:06:37.436Z,98369.21
2022-12-26T07:09:09.339Z,98372.17
2022-12-26T07:11:41.211Z,98365.50
2022-12-26T07:14:09.464Z,98366.03
2022-12-26T07:16:39.242Z,98374.64
2022-12-26T07:19:07.794Z,98377.05
2022-12-26T07:21:40.471Z,98371.69
2022-12-26T07:24:07.377Z,98364.19
2022-12-26T07:26:34.861Z,98365.53
2022-12-26T07:29:02.595Z,98363.36
2022-12-26T07:31:30.449Z,98359.63
2022-12-26T07:33:58.239Z,98356.97
2022-12-26T07:36:26.591Z,98363.94
2022-12-26T07:38:54.156Z,98356.16
2022-12-26T07:41:40.699Z,98352.68
2022-12-26T07:44:11.358Z,98361.26
2022-12-26T07:46:39.534Z,98361.52
2022-12-26T07:49:08.042Z,98357.23
2022-12-26T07:51:35.729Z,98360.19
2022-12-26T07:54:09.076Z,98364.20
2022-12-26T07:56:33.002Z,98361.02
2022-12-26T07:59:00.820Z,98362.35
2022-12-26T08:01:28.426Z,98345.75
2022-12-26T08:03:56.272Z,98347.65
2022-12-26T08:06:23.875Z,98345.28
2022-12-26T08:08:51.858Z,98338.05
2022-12-26T08:11:22.767Z,98331.92
2022-12-26T08:13:51.857Z,98332.75
2022-12-26T08:16:20.555Z,98331.43
2022-12-26T08:18:48.405Z,98344.89
2022-12-26T08:21:16.382Z,98336.05
2022-12-26T08:23:44.783Z,98337.41
2022-12-26T08:26:15.388Z,98332.58
2022-12-26T08:28:42.958Z,98326.42
2022-12-26T08:31:13.694Z,98315.41
2022-12-26T08:33:41.806Z,98317.59
2022-12-26T08:36:12.469Z,98316.77
2022-12-26T08:38:40.376Z,98309.80
2022-12-26T08:41:08.458Z,98306.31
2022-12-26T08:44:24.521Z,98298.80
2022-12-26T08:46:11.595Z,98298.50
2022-12-26T08:48:41.347Z,98297.16
2022-12-26T08:51:16.494Z,98303.63
2022-12-26T08:53:45.992Z,98301.20
2022-12-26T08:56:20.438Z,98296.37
2022-12-26T08:58:48.647Z,98300.64
2022-12-26T09:01:20.710Z,98311.39
2022-12-26T09:03:53.440Z,98312.48
2022-12-26T09:06:21.567Z,98301.98
2022-12-26T09:08:49.151Z,98303.33
2022-12-26T09:11:25.411Z,98306.56
2022-12-26T09:13:54.257Z,98309.26
2022-12-26T09:16:29.565Z,98299.86
2022-12-26T09:19:00.921Z,98293.69
2022-12-26T09:21:29.783Z,98296.90
2022-12-26T09:24:03.621Z,98291.53
2022-12-26T09:26:31.797Z,98281.06
2022-12-26T09:28:59.785Z,98289.38
2022-12-26T09:31:31.426Z,98293.68
2022-12-26T09:34:03.638Z,98300.39
2022-12-26T09:36:37.653Z,98291.52
2022-12-26T09:39:06.332Z,98285.60
2022-12-26T09:41:57.411Z,98275.64
2022-12-26T09:44:42.776Z,98269.98
2022-12-26T09:47:37.309Z,98277.45
2022-12-26T09:50:13.201Z,98267.48
2022-12-26T09:52:52.517Z,98269.03
2022-12-26T09:55:56.152Z,98268.98
2022-12-26T09:58:47.630Z,98264.11
2022-12-26T10:01:26.540Z,98252.77
2022-12-26T10:03:57.347Z,98255.41
2022-12-26T10:06:38.731Z,98252.17
2022-12-26T10:09:42.567Z,98257.00
2022-12-26T10:12:38.505Z,98250.25
2022-12-26T10:15:44.966Z,98254.28
2022-12-26T10:18:21.245Z,98254.57
2022-12-26T10:21:18.745Z,98254.86
2022-12-26T10:24:13.278Z,98248.69
2022-12-26T10:26:45.939Z,98246.80
2022-12-26T10:29:27.678Z,98244.91
2022-12-26T10:32:14.915Z,98246.54
2022-12-26T10:34:46.205Z,98247.30
2022-12-26T10:37:39.110Z,98234.94
2022-12-26T10:40:23.996Z,98231.70
2022-12-26T10:42:58.989Z,98230.06
2022-12-26T10:45:44.827Z,98227.88
2022-12-26T10:48:16.968Z,98223.28
2022-12-26T10:50:48.424Z,98226.48
2022-12-26T10:53:16.998Z,98225.13
2022-12-26T10:55:44.938Z,98225.08
2022-12-26T10:58:29.846Z,98219.94
2022-12-26T11:01:17.646Z,98221.48
2022-12-26T11:03:55.810Z,98215.24
2022-12-26T11:06:28.811Z,98221.88
2022-12-26T11:08:57.119Z,98212.63
2022-12-26T11:11:47.244Z,98216.05
2022-12-26T11:14:40.222Z,98214.62
2022-12-26T11:17:29.892Z,98209.16
2022-12-26T11:20:18.140Z,98204.73
2022-12-26T11:22:46.797Z,98204.66
2022-12-26T11:25:22.452Z,98200.80
2022-12-26T11:27:57.055Z,98191.30
2022-12-26T11:30:31.881Z,98189.61
2022-12-26T11:33:25.955Z,98184.20
2022-12-26T11:36:10.817Z,98185.80
2022-12-26T11:38:58.636Z,98181.75
2022-12-26T11:41:38.262Z,98188.73
2022-12-26T11:44:19.110Z,98188.48
2022-12-26T11:47:16.070Z,98188.79
2022-12-26T11:50:00.527Z,98182.37
2022-12-26T11:52:42.080Z,98181.29
2022-12-26T11:55:30.636Z,98167.31
2022-12-26T11:58:20.513Z,98175.65
2022-12-26T12:01:02.440Z,98178.84
2022-12-26T12:03:49.613Z,98168.59
2022-12-26T12:06:54.653Z,98176.67
2022-12-26T12:09:39.740Z,98177.70
2022-12-26T12:12:31.030Z,98169.62
2022-12-26T12:15:12.813Z,98167.42
2022-12-26T12:18:04.059Z,98165.82
2022-12-26T12:20:58.294Z,98165.82
2022-12-26T12:24:09.380Z,98166.59
2022-12-26T12:26:54.872Z,98163.58
2022-12-26T12:29:31.783Z,98155.89
2022-12-26T12:32:35.220Z,98155.79
2022-12-26T12:35:37.041Z,98161.33
2022-12-26T12:38:43.495Z,98155.75
2022-12-26T12:41:40.761Z,98162.63
2022-12-26T12:44:22.541Z,98168.94
2022-12-26T12:47:07.820Z,98164.31
2022-12-26T12:49:59.277Z,98166.95
2022-12-26T12:53:02.760Z,98161.77
2022-12-26T12:55:35.874Z,98162.51
2022-12-26T12:58:27.099Z,98154.10
2022-12-26T13:01:06.395Z,98160.30
2022-12-26T13:03:42.309Z,98161.89
2022-12-26T13:06:21.261Z,98159.41
2022-12-26T13:08:57.495Z,98146.65
2022-12-26T13:11:42.999Z,98151.70
2022-12-26T13:14:24.832Z,98145.97
2022-12-26T13:17:12.897Z,98140.23
2022-12-26T13:20:11.161Z,98145.36
2022-12-26T13:23:11.251Z,98146.45
2022-12-26T13:25:50.208Z,98143.61
2022-12-26T13:28:22.876Z,98152.11
2022-12-26T13:30:55.076Z,98151.16
2022-12-26T13:33:23.178Z,98152.88
2022-12-26T13:35:58.342Z,98160.29
2022-12-26T13:38:53.865Z,98163.08
2022-12-26T13:41:36.797Z,98160.19
2022-12-26T13:44:12.036Z,98161.37
2022-12-26T13:46:47.798Z,98159.52
2022-12-26T13:49:36.538Z,98162.30
2022-12-26T13:52:24.841Z,98156.16
2022-12-26T13:54:58.223Z,98149.74
2022-12-26T13:57:38.181Z,98142.28
2022-12-26T14:00:14.398Z,98147.70
2022-12-26T14:03:20.235Z,98149.94
2022-12-26T14:06:17.199Z,98150.27
2022-12-26T14:09:20.860Z,98146.05
2022-12-26T14:12:21.691Z,98152.81
2022-12-26T14:15:14.247Z,98153.66
2022-12-26T14:18:20.329Z,98144.23
2022-12-26T14:21:16.277Z,98137.44
2022-12-26T14:24:10.044Z,98138.45
2022-12-26T14:27:10.644Z,98132.47
2022-12-26T14:30:16.197Z,98136.98
2022-12-26T14:33:10.634Z,98127.71
2022-12-26T14:35:55.007Z,98119.05
2022-12-26T14:38:58.985Z,98122.54
2022-12-26T14:41:45.745Z,98131.73
2022-12-26T14:44:27.810Z,98133.38
2022-12-26T14:46:59.639Z,98143.17
2022-12-26T14:49:36.437Z,98144.36
2022-12-26T14:52:29.416Z,98143.36
2022-12-26T14:54:57.312Z,98148.62
2022-12-26T14:57:45.880Z,98157.34
2022-12-26T15:00:24.788Z,98155.81
2022-12-26T15:03:03.973Z,98154.08
2022-12-26T15:05:41.420Z,98145.28
2022-12-26T15:08:20.788Z,98126.52
2022-12-26T15:11:10.714Z,98130.14
2022-12-26T15:13:46.909Z,98129.97
2022-12-26T15:16:43.913Z,98126.31
2022-12-26T15:19:58.243Z,98128.55
2022-12-26T15:22:54.377Z,98134.53
2022-12-26T15:25:51.975Z,98136.75
2022-12-26T15:28:53.917Z,98135.16
2022-12-26T15:31:30.910Z,98132.27
2022-12-26T15:34:29.900Z,98122.36
2022-12-26T15:37:28.012Z,98124.55
2022-12-26T15:40:17.879Z,98115.45
2022-12-26T15:43:26.169Z,98113.61
2022-12-26T15:46:16.322Z,98117.16
2022-12-26T15:49:11.551Z,98105.34
2022-12-26T15:51:55.562Z,98097.58
2022-12-26T15:55:03.461Z,98105.10
2022-12-26T15:58:06.598Z,98105.65
2022-12-26T16:00:53.864Z,98093.84
2022-12-26T16:03:45.315Z,98104.84
2022-12-26T16:06:27.568Z,98108.03
2022-12-26T16:09:13.194Z,98100.41
2022-12-26T16:11:57.236Z,98095.50
2022-12-26T16:14:32.648Z,98101.92
2022-12-26T16:17:17.448Z,98102.48
2022-12-26T16:19:48.793Z,98110.00
2022-12-26T16:22:48.917Z,98119.17
2022-12-26T16:25:21.944Z,98117.05
2022-12-26T16:27:53.371Z,98115.24
2022-12-26T16:30:25.116Z,98113.12
2022-12-26T16:32:53.955Z,98119.05
2022-12-26T16:35:37.846Z,98124.52
2022-12-26T16:38:07.722Z,98110.84
2022-12-26T16:40:48.238Z,98107.65
2022-12-26T16:43:26.177Z,98104.99
2022-12-26T16:45:59.815Z,98116.59
2022-12-26T16:48:30.717Z,98111.56
2022-12-26T16:51:01.709Z,98110.80
2022-12-26T16:53:40.772Z,98108.67
2022-12-26T16:56:33.472Z,98116.45
2022-12-26T16:59:17.569Z,98108.42
2022-12-26T17:01:52.840Z,98104.94
2022-12-26T17:04:27.113Z,98108.45
2022-12-26T17:07:07.392Z,98110.63
2022-12-26T17:09:45.354Z,98109.03
2022-12-26T17:12:32.180Z,98115.50
2022-12-26T17:15:01.801Z,98110.16
2022-12-26T17:17:38.302Z,98110.98
2022-12-26T17:20:29.526Z,98109.64
2022-12-26T17:22:57.263Z,98110.73
2022-12-26T17:25:32.892Z,98114.50
2022-12-26T17:28:18.040Z,98112.09
2022-12-26T17:30:48.177Z,98112.35
2022-12-26T17:33:27.990Z,98104.81
2022-12-26T17:38:34.044Z,98104.45
2022-12-26T17:41:04.805Z,98111.65
2022-12-26T17:43:38.723Z,98114.30
2022-12-26T17:46:09.697Z,98113.48
2022-12-26T17:48:36.986Z,98107.23
2022-12-26T17:51:08.346Z,98115.25
2022-12-26T17:53:40.265Z,98114.41
2022-12-26T17:56:15.316Z,98107.93
2022-12-26T17:58:43.604Z,98103.81
2022-12-26T18:01:15.974Z,98112.13
2022-12-26T18:03:41.174Z,98108.89
2022-12-26T18:06:13.909Z,98117.50
2022-12-26T18:08:41.688Z,98116.66
2022-12-26T18:11:12.825Z,98117.45
2022-12-26T18:13:40.884Z,98101.31
2022-12-26T18:16:15.745Z,98104.00
2022-12-26T18:18:45.946Z,98104.56
2022-12-26T18:21:16.779Z,98099.47
2022-12-26T18:23:45.274Z,98108.89
2022-12-26T18:26:26.969Z,98109.19
2022-12-26T18:28:54.871Z,98107.84
2022-12-26T18:31:22.660Z,98099.81
2022-12-26T18:33:50.543Z,98100.08
2022-12-26T18:36:19.717Z,98092.84
2022-12-26T18:38:47.359Z,98091.25
2022-12-26T18:41:18.007Z,98083.98
2022-12-26T18:43:46.316Z,98086.68
2022-12-26T18:46:19.863Z,98089.37
2022-12-26T18:48:48.100Z,98075.41
2022-12-26T18:51:16.135Z,98084.02
2022-12-26T18:53:43.869Z,98084.55
2022-12-26T18:56:20.864Z,98076.22
2022-12-26T18:58:57.097Z,98082.68
2022-12-26T19:01:20.253Z,98079.95
2022-12-26T19:03:48.213Z,98073.47
2022-12-26T19:06:26.771Z,98070.48
2022-12-26T19:08:54.751Z,98067.98
2022-12-26T19:11:23.211Z,98067.94
2022-12-26T19:13:50.667Z,98062.77
2022-12-26T19:16:18.532Z,98056.23
2022-12-26T19:18:46.098Z,98055.63
2022-12-26T19:21:15.712Z,98064.14
2022-12-26T19:23:48.128Z,98063.02
2022-12-26T19:26:18.296Z,98063.81
2022-12-26T19:28:51.906Z,98071.83
2022-12-26T19:31:20.816Z,98064.78
2022-12-26T19:33:49.051Z,98063.72
2022-12-26T19:36:17.092Z,98061.30
2022-12-26T19:38:44.531Z,98066.98
2022-12-26T19:41:14.309Z,98056.77
2022-12-26T19:43:42.397Z,98054.92
2022-12-26T19:46:17.059Z,98061.13
2022-12-26T19:48:44.659Z,98056.06
2022-12-26T19:51:14.866Z,98060.70
2022-12-26T19:53:43.989Z,98048.11
2022-12-26T19:56:15.910Z,98038.16
2022-12-26T19:58:44.098Z,98035.50
2022-12-26T20:01:19.433Z,98040.65
2022-12-26T20:03:47.135Z,98046.05
2022-12-26T20:06:21.797Z,98049.84
2022-12-26T20:08:50.575Z,98049.08
2022-12-26T20:11:22.879Z,98043.72
2022-12-26T20:13:51.373Z,98045.36
2022-12-26T20:17:03.439Z,98032.45
2022-12-26T20:18:54.106Z,98035.94
2022-12-26T20:21:23.223Z,98038.09
2022-12-26T20:23:51.107Z,98027.89
2022-12-26T20:26:22.340Z,98030.86
2022-12-26T20:28:50.642Z,98030.56
2022-12-26T20:31:21.153Z,98023.78
2022-12-26T20:33:51.134Z,98025.86
2022-12-26T20:36:23.311Z,98032.56
2022-12-26T20:38:53.916Z,98024.98
2022-12-26T20:41:22.071Z,98018.44
2022-12-26T20:43:50.754Z,98013.00
2022-12-26T20:46:25.658Z,98023.45
2022-12-26T20:48:54.019Z,98015.34
2022-12-26T20:51:25.083Z,98014.75
2022-12-26T20:53:53.419Z,98022.82
2022-12-26T20:56:21.199Z,98017.44
2022-12-26T20:58:48.624Z,98020.66
2022-12-26T21:01:22.051Z,98014.43
2022-12-26T21:03:53.719Z,98009.58
2022-12-26T21:06:25.988Z,98016.54
2022-12-26T21:08:55.140Z,97998.24
2022-12-26T21:11:30.094Z,97993.92
2022-12-26T21:14:02.141Z,98006.34
2022-12-26T21:16:34.638Z,98005.86
2022-12-26T21:19:03.344Z,98009.41
2022-12-26T21:21:34.692Z,98011.63
2022-12-26T21:24:07.033Z,98010.94
2022-12-26T21:26:36.885Z,98002.12
2022-12-26T21:29:08.591Z,97993.25
2022-12-26T21:31:37.575Z,97994.34
2022-12-26T21:34:06.081Z,98000.79
2022-12-26T21:36:34.809Z,97992.72
2022-12-26T21:39:08.386Z,97994.06
2022-12-26T21:41:38.811Z,97992.22
2022-12-26T21:44:06.225Z,97989.52
2022-12-26T21:46:34.902Z,97987.93
2022-12-26T21:49:02.433Z,97995.47
2022-12-26T21:51:31.605Z,97990.93
2022-12-26T21:54:01.071Z,97994.97
2022-12-26T21:56:28.466Z,97994.13
2022-12-26T21:59:14.560Z,97993.81
2022-12-26T22:01:42.381Z,98004.02
2022-12-26T22:04:22.808Z,98009.38
2022-12-26T22:06:51.498Z,98001.80
2022-12-26T22:09:19.242Z,97993.11
2022-12-26T22:12:06.263Z,97996.27
2022-12-26T22:14:33.869Z,97994.05
2022-12-26T22:17:01.415Z,97985.91
2022-12-26T22:19:29.084Z,97982.95
2022-12-26T22:21:56.799Z,97982.91
2022-12-26T22:24:24.576Z,97978.05
2022-12-26T22:26:52.698Z,97974.26
2022-12-26T22:29:20.252Z,97971.02
2022-12-26T22:31:47.957Z,97968.30
2022-12-26T22:34:16.354Z,97964.27
2022-12-26T22:36:44.007Z,97956.75
2022-12-26T22:39:17.007Z,97956.23
2022-12-26T22:41:45.745Z,97949.81
2022-12-26T22:44:14.346Z,97940.72
2022-12-26T22:46:42.374Z,97937.52
2022-12-26T22:49:10.269Z,97927.37
2022-12-26T22:51:38.022Z,97928.45
2022-12-26T22:54:05.713Z,97928.22
2022-12-26T22:56:33.812Z,97916.70
2022-12-26T22:59:02.683Z,97918.06
2022-12-26T23:01:30.946Z,97915.67
2022-12-26T23:04:01.105Z,97923.47
2022-12-26T23:06:35.452Z,97920.53
2022-12-26T23:09:07.264Z,97912.20
2022-12-26T23:11:35.863Z,97913.87
2022-12-26T23:14:06.958Z,97918.47
2022-12-26T23:16:51.076Z,97924.42
2022-12-26T23:19:42.540Z,97922.05
2022-12-26T23:22:10.583Z,97913.45
2022-12-26T23:24:38.255Z,97913.66
2022-12-26T23:27:27.338Z,97920.89
2022-12-26T23:30:13.655Z,97921.08
2022-12-26T23:32:44.032Z,97924.17
2022-12-26T23:35:12.355Z,97922.47
2022-12-26T23:37:40.958Z,97912.13
2022-12-26T23:40:12.652Z,97896.67
2022-12-26T23:42:40.306Z,97898.99
2022-12-26T23:45:10.555Z,97900.28
2022-12-26T23:47:41.758Z,97893.00
2022-12-26T23:50:13.426Z,97901.85
2022-12-26T23:52:41.364Z,97906.77
2022-12-26T23:55:10.859Z,97914.63
2022-12-26T23:57:38.504Z,97905.05
